createdAt,value
2019-01-23T00:00:22.613Z,-7.40
2019-01-23T00:01:22.582Z,-7.33
2019-01-23T00:02:22.556Z,-7.30
2019-01-23T00:03:22.471Z,-7.39
2019-01-23T00:04:22.432Z,-7.50
2019-01-23T00:05:22.381Z,-7.71
2019-01-23T00:06:22.335Z,-7.52
2019-01-23T00:07:22.290Z,-7.37
2019-01-23T00:08:22.239Z,-7.43
2019-01-23T00:09:22.246Z,-7.36
2019-01-23T00:10:22.156Z,-7.55
2019-01-23T00:11:22.100Z,-7.66
2019-01-23T00:12:22.110Z,-7.68
2019-01-23T00:13:22.060Z,-7.69
2019-01-23T00:14:21.940Z,-7.71
2019-01-23T00:15:21.948Z,-7.68
2019-01-23T00:16:21.851Z,-7.66
2019-01-23T00:17:21.827Z,-7.82
2019-01-23T00:18:21.755Z,-7.83
2019-01-23T00:19:21.707Z,-7.82
2019-01-23T00:20:21.677Z,-7.73
2019-01-23T00:21:21.628Z,-7.83
2019-01-23T00:22:21.574Z,-7.89
2019-01-23T00:23:21.562Z,-8.01
2019-01-23T00:24:21.533Z,-8.01
2019-01-23T00:25:21.451Z,-7.96
2019-01-23T00:26:21.385Z,-7.89
2019-01-23T00:27:21.341Z,-7.75
2019-01-23T00:28:21.289Z,-7.61
2019-01-23T00:29:21.234Z,-7.60
2019-01-23T00:30:21.209Z,-7.72
2019-01-23T00:31:21.143Z,-7.71
2019-01-23T00:32:21.093Z,-7.66
2019-01-23T00:33:21.043Z,-7.62
2019-01-23T00:34:20.996Z,-7.62
2019-01-23T00:35:20.966Z,-7.66
2019-01-23T00:36:20.917Z,-7.79
2019-01-23T00:37:20.870Z,-7.78
2019-01-23T00:38:20.823Z,-7.87
2019-01-23T00:39:20.752Z,-7.96
2019-01-23T00:40:20.793Z,-7.83
2019-01-23T00:41:20.668Z,-7.75
2019-01-23T00:42:20.615Z,-7.68
2019-01-23T00:43:20.575Z,-7.54
2019-01-23T00:44:20.517Z,-7.52
2019-01-23T00:45:20.488Z,-7.39
2019-01-23T00:46:20.419Z,-7.33
2019-01-23T00:47:20.395Z,-7.13
2019-01-23T00:48:20.351Z,-7.25
2019-01-23T00:49:20.308Z,-7.26
2019-01-23T00:50:20.298Z,-7.07
2019-01-23T00:51:20.182Z,-7.05
2019-01-23T00:52:20.144Z,-7.19
2019-01-23T00:53:20.111Z,-7.18
2019-01-23T00:54:20.039Z,-7.21
2019-01-23T00:55:20.005Z,-7.21
2019-01-23T00:56:19.969Z,-7.23
2019-01-23T00:57:19.897Z,-7.12
2019-01-23T00:58:19.959Z,-7.01
2019-01-23T00:59:19.797Z,-7.00
2019-01-23T01:00:19.775Z,-6.94
2019-01-23T01:01:19.699Z,-6.86
2019-01-23T01:02:19.659Z,-6.79
2019-01-23T01:03:19.677Z,-6.94
2019-01-23T01:04:19.682Z,-6.76
2019-01-23T01:05:19.522Z,-6.74
2019-01-23T01:06:19.458Z,-6.87
2019-01-23T01:07:19.419Z,-6.86
2019-01-23T01:08:19.390Z,-6.74
2019-01-23T01:09:19.328Z,-6.63
2019-01-23T01:10:19.286Z,-6.55
2019-01-23T01:11:19.240Z,-6.43
2019-01-23T01:12:19.179Z,-6.43
2019-01-23T01:13:19.209Z,-6.43
2019-01-23T01:14:19.083Z,-6.50
2019-01-23T01:15:19.048Z,-6.52
2019-01-23T01:16:19.006Z,-6.49
2019-01-23T01:17:18.969Z,-6.40
2019-01-23T01:18:18.885Z,-6.39
2019-01-23T01:19:18.847Z,-6.61
2019-01-23T01:20:18.814Z,-6.66
2019-01-23T01:21:18.757Z,-6.62
2019-01-23T01:22:18.694Z,-6.65
2019-01-23T01:23:18.650Z,-6.76
2019-01-23T01:24:18.612Z,-6.80
2019-01-23T01:25:18.594Z,-6.74
2019-01-23T01:26:18.604Z,-6.94
2019-01-23T01:27:18.460Z,-6.79
2019-01-23T01:28:20.846Z,-6.71
2019-01-23T01:29:18.377Z,-6.79
2019-01-23T01:30:18.331Z,-6.69
2019-01-23T01:31:18.283Z,-6.83
2019-01-23T01:32:18.228Z,-6.82
2019-01-23T01:33:18.211Z,-6.77
2019-01-23T01:34:18.126Z,-6.71
2019-01-23T01:35:18.074Z,-6.69
2019-01-23T01:36:18.053Z,-6.80
2019-01-23T01:37:17.990Z,-6.79
2019-01-23T01:38:17.928Z,-6.84
2019-01-23T01:39:17.884Z,-7.00
2019-01-23T01:40:19.448Z,-6.86
2019-01-23T01:41:17.799Z,-6.95
2019-01-23T01:42:17.781Z,-6.97
2019-01-23T01:43:18.342Z,-6.89
2019-01-23T01:44:17.656Z,-6.95
2019-01-23T01:45:17.610Z,-6.95
2019-01-23T01:46:17.542Z,-7.01
2019-01-23T01:47:17.524Z,-7.16
2019-01-23T01:48:17.457Z,-7.34
2019-01-23T01:49:17.407Z,-7.43
2019-01-23T01:50:17.359Z,-7.50
2019-01-23T01:51:17.324Z,-7.39
2019-01-23T01:52:17.281Z,-7.44
2019-01-23T01:53:17.247Z,-7.43
2019-01-23T01:54:17.208Z,-7.30
2019-01-23T01:55:17.124Z,-7.36
2019-01-23T01:56:17.139Z,-7.40
2019-01-23T01:57:17.031Z,-7.39
2019-01-23T01:58:16.982Z,-7.46
2019-01-23T01:59:16.936Z,-7.64
2019-01-23T02:00:17.015Z,-7.57
2019-01-23T02:01:16.833Z,-7.52
2019-01-23T02:02:16.795Z,-7.43
2019-01-23T02:03:16.731Z,-7.40
2019-01-23T02:04:16.702Z,-7.30
2019-01-23T02:05:16.640Z,-7.31
2019-01-23T02:06:16.606Z,-7.23
2019-01-23T02:07:16.556Z,-7.31
2019-01-23T02:08:16.512Z,-7.39
2019-01-23T02:09:16.479Z,-7.43
2019-01-23T02:10:16.409Z,-7.57
2019-01-23T02:11:16.367Z,-7.68
2019-01-23T02:12:16.306Z,-7.71
2019-01-23T02:13:16.355Z,-7.68
2019-01-23T02:14:16.221Z,-7.69
2019-01-23T02:15:16.222Z,-7.64
2019-01-23T02:16:16.111Z,-7.68
2019-01-23T02:17:16.068Z,-7.60
2019-01-23T02:18:16.021Z,-7.64
2019-01-23T02:19:15.959Z,-7.75
2019-01-23T02:20:15.916Z,-7.86
2019-01-23T02:21:15.882Z,-7.96
2019-01-23T02:22:15.827Z,-7.97
2019-01-23T02:23:15.786Z,-7.93
2019-01-23T02:24:15.744Z,-7.87
2019-01-23T02:25:15.690Z,-7.94
2019-01-23T02:26:15.636Z,-8.05
2019-01-23T02:27:15.581Z,-8.18
2019-01-23T02:28:15.549Z,-8.31
2019-01-23T02:29:15.489Z,-8.42
2019-01-23T02:30:15.451Z,-8.40
2019-01-23T02:31:15.417Z,-8.44
2019-01-23T02:32:15.353Z,-8.26
2019-01-23T02:33:15.320Z,-7.99
2019-01-23T02:34:15.257Z,-7.94
2019-01-23T02:35:15.221Z,-8.02
2019-01-23T02:36:15.150Z,-8.06
2019-01-23T02:37:15.959Z,-8.21
2019-01-23T02:38:15.049Z,-8.23
2019-01-23T02:39:15.018Z,-8.29
2019-01-23T02:40:14.971Z,-8.33
2019-01-23T02:41:14.912Z,-8.42
2019-01-23T02:42:14.917Z,-8.65
2019-01-23T02:43:15.437Z,-8.65
2019-01-23T02:44:14.768Z,-8.83
2019-01-23T02:45:14.713Z,-8.89
2019-01-23T02:46:14.682Z,-8.81
2019-01-23T02:47:14.650Z,-8.80
2019-01-23T02:48:14.724Z,-8.81
2019-01-23T02:49:14.581Z,-8.83
2019-01-23T02:50:14.478Z,-8.65
2019-01-23T02:51:14.424Z,-8.68
2019-01-23T02:52:14.390Z,-8.68
2019-01-23T02:53:14.343Z,-8.57
2019-01-23T02:54:14.279Z,-8.60
2019-01-23T02:55:14.272Z,-8.50
2019-01-23T02:56:14.198Z,-8.47
2019-01-23T02:57:14.139Z,-8.57
2019-01-23T02:58:14.092Z,-8.60
2019-01-23T02:59:17.469Z,-8.78
2019-01-23T03:00:13.985Z,-8.91
2019-01-23T03:01:13.943Z,-8.91
2019-01-23T03:02:13.888Z,-9.04
2019-01-23T03:03:13.842Z,-9.00
2019-01-23T03:04:13.797Z,-9.01
2019-01-23T03:05:13.752Z,-9.20
2019-01-23T03:06:13.707Z,-9.11
2019-01-23T03:07:13.665Z,-9.04
2019-01-23T03:08:13.605Z,-9.02
2019-01-23T03:09:13.727Z,-8.90
2019-01-23T03:10:13.526Z,-8.94
2019-01-23T03:11:13.496Z,-8.83
2019-01-23T03:12:13.428Z,-8.76
2019-01-23T03:13:13.384Z,-8.69
2019-01-23T03:14:13.323Z,-8.73
2019-01-23T03:15:13.304Z,-8.87
2019-01-23T03:16:13.241Z,-9.01
2019-01-23T03:17:13.175Z,-8.87
2019-01-23T03:18:13.231Z,-8.96
2019-01-23T03:19:13.067Z,-8.86
2019-01-23T03:20:13.030Z,-8.81
2019-01-23T03:21:12.996Z,-8.75
2019-01-23T03:22:12.947Z,-8.83
2019-01-23T03:23:12.882Z,-8.73
2019-01-23T03:24:12.846Z,-8.84
2019-01-23T03:25:12.798Z,-8.81
2019-01-23T03:26:12.767Z,-8.90
2019-01-23T03:27:12.683Z,-8.87
2019-01-23T03:28:12.633Z,-8.96
2019-01-23T03:29:12.608Z,-9.05
2019-01-23T03:30:12.550Z,-9.14
2019-01-23T03:31:12.519Z,-9.19
2019-01-23T03:32:12.493Z,-9.05
2019-01-23T03:33:12.411Z,-9.01
2019-01-23T03:34:12.350Z,-8.93
2019-01-23T03:35:12.296Z,-8.87
2019-01-23T03:36:12.255Z,-8.81
2019-01-23T03:37:12.217Z,-8.89
2019-01-23T03:38:12.157Z,-8.81
2019-01-23T03:39:12.108Z,-8.86
2019-01-23T03:40:12.085Z,-8.93
2019-01-23T03:41:12.000Z,-9.00
2019-01-23T03:42:11.957Z,-8.89
2019-01-23T03:43:11.904Z,-8.94
2019-01-23T03:44:11.920Z,-8.90
2019-01-23T03:45:11.824Z,-8.84
2019-01-23T03:46:11.767Z,-8.78
2019-01-23T03:47:11.719Z,-8.73
2019-01-23T03:48:11.680Z,-8.76
2019-01-23T03:49:11.626Z,-8.69
2019-01-23T03:50:11.568Z,-8.81
2019-01-23T03:51:11.545Z,-8.78
2019-01-23T03:52:11.466Z,-8.83
2019-01-23T03:53:11.421Z,-8.83
2019-01-23T03:54:11.371Z,-8.80
2019-01-23T03:55:11.320Z,-8.78
2019-01-23T03:56:11.281Z,-8.81
2019-01-23T03:57:11.237Z,-8.86
2019-01-23T03:58:11.178Z,-8.80
2019-01-23T03:59:11.132Z,-8.84
2019-01-23T04:00:11.085Z,-8.80
2019-01-23T04:01:11.031Z,-8.75
2019-01-23T04:02:10.985Z,-8.80
2019-01-23T04:03:10.937Z,-8.83
2019-01-23T04:04:10.894Z,-9.02
2019-01-23T04:05:10.853Z,-9.04
2019-01-23T04:06:10.815Z,-9.00
2019-01-23T04:07:10.768Z,-9.15
2019-01-23T04:08:10.721Z,-9.15
2019-01-23T04:09:10.652Z,-8.98
2019-01-23T04:10:10.596Z,-8.89
2019-01-23T04:11:10.549Z,-8.81
2019-01-23T04:12:10.524Z,-8.70
2019-01-23T04:13:10.489Z,-8.58
2019-01-23T04:14:10.441Z,-8.62
2019-01-23T04:15:10.366Z,-8.60
2019-01-23T04:16:10.313Z,-8.51
2019-01-23T04:17:10.264Z,-8.63
2019-01-23T04:18:10.206Z,-8.63
2019-01-23T04:19:10.191Z,-8.66
2019-01-23T04:20:10.106Z,-8.75
2019-01-23T04:21:10.070Z,-8.76
2019-01-23T04:22:10.005Z,-8.87
2019-01-23T04:23:10.109Z,-8.73
2019-01-23T04:24:09.915Z,-8.81
2019-01-23T04:25:09.880Z,-8.66
2019-01-23T04:26:09.842Z,-8.68
2019-01-23T04:27:09.782Z,-8.58
2019-01-23T04:28:09.723Z,-8.50
2019-01-23T04:29:09.688Z,-8.50
2019-01-23T04:30:09.624Z,-8.51
2019-01-23T04:31:09.630Z,-8.47
2019-01-23T04:32:09.621Z,-8.58
2019-01-23T04:33:09.481Z,-8.60
2019-01-23T04:34:09.443Z,-8.68
2019-01-23T04:35:09.412Z,-8.73
2019-01-23T04:36:09.350Z,-8.72
2019-01-23T04:37:09.276Z,-8.69
2019-01-23T04:38:09.268Z,-8.72
2019-01-23T04:39:09.195Z,-8.72
2019-01-23T04:40:09.143Z,-8.65
2019-01-23T04:41:09.087Z,-8.57
2019-01-23T04:42:09.061Z,-8.60
2019-01-23T04:43:09.015Z,-8.60
2019-01-23T04:44:08.970Z,-8.50
2019-01-23T04:45:08.921Z,-8.54
2019-01-23T04:46:08.868Z,-8.52
2019-01-23T04:47:08.799Z,-8.47
2019-01-23T04:48:08.762Z,-8.55
2019-01-23T04:49:08.762Z,-8.52
2019-01-23T04:50:08.676Z,-8.47
2019-01-23T04:51:08.615Z,-8.63
2019-01-23T04:52:08.571Z,-8.63
2019-01-23T04:53:08.559Z,-8.70
2019-01-23T04:54:08.492Z,-8.65
2019-01-23T04:55:08.399Z,-8.72
2019-01-23T04:56:08.427Z,-8.75
2019-01-23T04:57:08.314Z,-8.78
2019-01-23T04:58:08.298Z,-8.78
2019-01-23T04:59:08.204Z,-8.78
2019-01-23T05:00:08.189Z,-8.87
2019-01-23T05:01:08.126Z,-8.84
2019-01-23T05:02:08.076Z,-8.83
2019-01-23T05:03:08.022Z,-8.89
2019-01-23T05:04:07.972Z,-9.00
2019-01-23T05:05:07.966Z,-9.07
2019-01-23T05:06:07.886Z,-9.19
2019-01-23T05:07:07.836Z,-9.22
2019-01-23T05:08:07.776Z,-9.20
2019-01-23T05:09:07.777Z,-9.28
2019-01-23T05:10:07.669Z,-9.36
2019-01-23T05:11:07.631Z,-9.33
2019-01-23T05:12:07.567Z,-9.41
2019-01-23T05:13:07.541Z,-9.52
2019-01-23T05:14:07.485Z,-9.40
2019-01-23T05:15:07.621Z,-9.30
2019-01-23T05:16:07.403Z,-9.40
2019-01-23T05:17:07.343Z,-9.48
2019-01-23T05:18:07.291Z,-9.30
2019-01-23T05:19:07.264Z,-9.37
2019-01-23T05:20:07.197Z,-9.33
2019-01-23T05:21:07.140Z,-9.50
2019-01-23T05:22:07.138Z,-9.44
2019-01-23T05:23:07.054Z,-9.48
2019-01-23T05:24:07.027Z,-9.39
2019-01-23T05:25:06.947Z,-9.36
2019-01-23T05:26:06.899Z,-9.10
2019-01-23T05:27:06.860Z,-9.05
2019-01-23T05:28:06.807Z,-9.02
2019-01-23T05:29:06.784Z,-9.07
2019-01-23T05:30:06.706Z,-9.05
2019-01-23T05:31:06.659Z,-9.15
2019-01-23T05:32:06.640Z,-9.20
2019-01-23T05:33:06.567Z,-9.29
2019-01-23T05:34:06.507Z,-9.51
2019-01-23T05:35:06.531Z,-9.41
2019-01-23T05:36:06.421Z,-9.50
2019-01-23T05:37:06.380Z,-9.41
2019-01-23T05:38:06.317Z,-9.39
2019-01-23T05:39:06.281Z,-9.37
2019-01-23T05:40:06.250Z,-9.37
2019-01-23T05:41:06.190Z,-9.50
2019-01-23T05:42:06.120Z,-9.48
2019-01-23T05:43:06.071Z,-9.56
2019-01-23T05:44:06.020Z,-9.69
2019-01-23T05:45:05.967Z,-9.71
2019-01-23T05:46:05.936Z,-9.62
2019-01-23T05:47:05.903Z,-9.62
2019-01-23T05:48:05.879Z,-9.62
2019-01-23T05:49:05.819Z,-9.62
2019-01-23T05:50:05.736Z,-9.71
2019-01-23T05:51:05.682Z,-9.63
2019-01-23T05:52:05.647Z,-9.66
2019-01-23T05:53:05.585Z,-9.54
2019-01-23T05:54:05.530Z,-9.61
2019-01-23T05:55:05.502Z,-9.61
2019-01-23T05:56:05.456Z,-9.72
2019-01-23T05:57:05.417Z,-9.74
2019-01-23T05:58:05.343Z,-9.79
2019-01-23T05:59:05.341Z,-9.79
2019-01-23T06:00:05.242Z,-9.94
2019-01-23T06:01:05.206Z,-9.92
2019-01-23T06:02:05.148Z,-9.95
2019-01-23T06:03:05.088Z,-10.05
2019-01-23T06:04:05.072Z,-10.07
2019-01-23T06:05:05.040Z,-10.16
2019-01-23T06:06:04.981Z,-10.08
2019-01-23T06:07:04.917Z,-10.07
2019-01-23T06:08:04.961Z,-10.12
2019-01-23T06:09:04.812Z,-10.08
2019-01-23T06:10:04.796Z,-10.16
2019-01-23T06:11:04.733Z,-10.26
2019-01-23T06:12:04.652Z,-10.23
2019-01-23T06:13:04.598Z,-10.26
2019-01-23T06:14:04.565Z,-10.21
2019-01-23T06:15:04.525Z,-10.30
2019-01-23T06:16:04.467Z,-10.23
2019-01-23T06:17:04.420Z,-10.22
2019-01-23T06:18:04.360Z,-10.23
2019-01-23T06:19:04.411Z,-10.21
2019-01-23T06:20:04.265Z,-10.25
2019-01-23T06:21:04.241Z,-10.30
2019-01-23T06:22:04.180Z,-10.22
2019-01-23T06:23:04.138Z,-10.16
2019-01-23T06:24:04.090Z,-10.13
2019-01-23T06:25:04.042Z,-10.04
2019-01-23T06:26:03.992Z,-10.07
2019-01-23T06:27:03.965Z,-10.07
2019-01-23T06:28:03.878Z,-10.00
2019-01-23T06:29:03.826Z,-9.98
2019-01-23T06:30:10.201Z,-9.97
2019-01-23T06:31:03.726Z,-9.94
2019-01-23T06:32:03.706Z,-9.84
2019-01-23T06:33:03.632Z,-9.95
2019-01-23T06:34:03.673Z,-9.65
2019-01-23T06:35:03.564Z,-9.71
2019-01-23T06:36:03.511Z,-9.90
2019-01-23T06:37:03.466Z,-9.89
2019-01-23T06:38:03.421Z,-9.87
2019-01-23T06:39:03.380Z,-9.79
2019-01-23T06:40:03.294Z,-9.76
2019-01-23T06:41:03.290Z,-9.62
2019-01-23T06:42:03.201Z,-9.52
2019-01-23T06:43:03.173Z,-9.54
2019-01-23T06:44:03.106Z,-9.62
2019-01-23T06:45:03.071Z,-9.56
2019-01-23T06:46:03.029Z,-9.52
2019-01-23T06:47:02.962Z,-9.62
2019-01-23T06:48:02.944Z,-9.77
2019-01-23T06:49:02.850Z,-9.74
2019-01-23T06:50:02.852Z,-9.65
2019-01-23T06:51:04.514Z,-9.61
2019-01-23T06:52:02.726Z,-9.59
2019-01-23T06:53:02.663Z,-9.50
2019-01-23T06:54:02.617Z,-9.47
2019-01-23T06:55:02.570Z,-9.39
2019-01-23T06:56:02.515Z,-9.41
2019-01-23T06:57:02.515Z,-9.51
2019-01-23T06:58:02.424Z,-9.51
2019-01-23T06:59:02.391Z,-9.56
2019-01-23T07:00:02.345Z,-9.47
2019-01-23T07:01:02.289Z,-9.54
2019-01-23T07:02:02.222Z,-9.40
2019-01-23T07:03:02.214Z,-9.48
2019-01-23T07:04:02.130Z,-9.45
2019-01-23T07:05:02.081Z,-9.32
2019-01-23T07:06:02.041Z,-9.37
2019-01-23T07:07:02.005Z,-9.39
2019-01-23T07:08:01.943Z,-9.39
2019-01-23T07:09:01.896Z,-9.28
2019-01-23T07:10:01.864Z,-9.36
2019-01-23T07:11:01.864Z,-9.48
2019-01-23T07:12:01.747Z,-9.48
2019-01-23T07:13:01.691Z,-9.50
2019-01-23T07:14:01.638Z,-9.48
2019-01-23T07:15:01.595Z,-9.29
2019-01-23T07:16:01.589Z,-9.26
2019-01-23T07:17:01.549Z,-9.14
2019-01-23T07:18:01.450Z,-9.18
2019-01-23T07:19:01.406Z,-9.15
2019-01-23T07:20:01.371Z,-9.11
2019-01-23T07:21:01.292Z,-9.10
2019-01-23T07:22:01.254Z,-9.10
2019-01-23T07:23:01.200Z,-9.04
2019-01-23T07:24:01.156Z,-8.94
2019-01-23T07:25:01.101Z,-9.04
2019-01-23T07:26:01.117Z,-9.00
2019-01-23T07:27:01.015Z,-8.86
2019-01-23T07:28:00.961Z,-8.93
2019-01-23T07:29:00.920Z,-8.89
2019-01-23T07:30:00.873Z,-9.00
2019-01-23T07:31:00.828Z,-8.84
2019-01-23T07:32:00.765Z,-8.81
2019-01-23T07:33:00.737Z,-8.81
2019-01-23T07:34:00.691Z,-8.73
2019-01-23T07:35:00.614Z,-8.66
2019-01-23T07:36:00.587Z,-8.66
2019-01-23T07:37:00.518Z,-8.60
2019-01-23T07:38:00.615Z,-8.54
2019-01-23T07:39:00.429Z,-8.44
2019-01-23T07:40:00.381Z,-8.39
2019-01-23T07:41:00.344Z,-8.39
2019-01-23T07:42:00.285Z,-8.24
2019-01-23T07:43:00.249Z,-8.21
2019-01-23T07:44:00.198Z,-8.24
2019-01-23T07:45:00.166Z,-8.24
2019-01-23T07:46:00.087Z,-8.21
2019-01-23T07:47:00.054Z,-8.23
2019-01-23T07:47:59.991Z,-8.11
2019-01-23T07:48:59.945Z,-8.05
2019-01-23T07:49:59.922Z,-8.08
2019-01-23T07:50:59.856Z,-7.99
2019-01-23T07:51:59.845Z,-7.97
2019-01-23T07:52:59.766Z,-7.89
2019-01-23T07:53:59.746Z,-7.90
2019-01-23T07:54:59.654Z,-7.93
2019-01-23T07:55:59.640Z,-7.80
2019-01-23T07:56:59.572Z,-7.79
2019-01-23T07:57:59.516Z,-7.78
2019-01-23T07:58:59.496Z,-7.68
2019-01-23T07:59:59.414Z,-7.71
2019-01-23T08:00:59.355Z,-7.71
2019-01-23T08:01:59.342Z,-7.68
2019-01-23T08:02:59.276Z,-7.60
2019-01-23T08:03:59.254Z,-7.50
2019-01-23T08:04:59.183Z,-7.44
2019-01-23T08:05:59.234Z,-7.40
2019-01-23T08:06:59.076Z,-7.36
2019-01-23T08:07:59.051Z,-7.31
2019-01-23T08:08:59.014Z,-7.23
2019-01-23T08:09:58.960Z,-7.19
2019-01-23T08:10:58.937Z,-7.05
2019-01-23T08:11:58.847Z,-7.04
2019-01-23T08:12:58.789Z,-6.94
2019-01-23T08:13:58.857Z,-6.83
2019-01-23T08:14:58.721Z,-6.84
2019-01-23T08:15:58.673Z,-6.83
2019-01-23T08:16:58.610Z,-6.86
2019-01-23T08:17:58.550Z,-6.87
2019-01-23T08:18:58.547Z,-6.76
2019-01-23T08:19:58.485Z,-6.83
2019-01-23T08:20:58.438Z,-6.86
2019-01-23T08:21:58.435Z,-6.69
2019-01-23T08:22:58.454Z,-6.55
2019-01-23T08:23:58.292Z,-6.43
2019-01-23T08:24:58.268Z,-6.40
2019-01-23T08:25:58.196Z,-6.28
2019-01-23T08:26:58.152Z,-6.18
2019-01-23T08:27:58.088Z,-6.16
2019-01-23T08:28:58.043Z,-6.08
2019-01-23T08:29:57.991Z,-6.03
2019-01-23T08:30:57.951Z,-6.00
2019-01-23T08:31:57.907Z,-5.98
2019-01-23T08:32:57.873Z,-5.98
2019-01-23T08:33:57.820Z,-6.04
2019-01-23T08:34:57.780Z,-6.10
2019-01-23T08:35:57.741Z,-6.11
2019-01-23T08:36:57.685Z,-6.11
2019-01-23T08:37:57.639Z,-6.10
2019-01-23T08:38:57.586Z,-6.08
2019-01-23T08:39:57.562Z,-6.08
2019-01-23T08:40:57.519Z,-6.03
2019-01-23T08:41:57.458Z,-5.97
2019-01-23T08:42:57.414Z,-5.75
2019-01-23T08:43:57.364Z,-5.65
2019-01-23T08:44:57.330Z,-5.64
2019-01-23T08:45:57.268Z,-5.66
2019-01-23T08:46:57.223Z,-5.48
2019-01-23T08:47:57.205Z,-5.48
2019-01-23T08:48:57.137Z,-5.26
2019-01-23T08:49:57.098Z,-5.37
2019-01-23T08:50:57.047Z,-5.53
2019-01-23T08:51:57.016Z,-5.71
2019-01-23T08:52:56.951Z,-5.55
2019-01-23T08:53:56.907Z,-5.61
2019-01-23T08:54:56.857Z,-5.66
2019-01-23T08:55:56.851Z,-5.65
2019-01-23T08:56:56.771Z,-5.53
2019-01-23T08:57:56.729Z,-5.53
2019-01-23T08:58:56.755Z,-5.39
2019-01-23T08:59:56.652Z,-5.43
2019-01-23T09:00:56.589Z,-5.30
2019-01-23T09:01:56.578Z,-5.08
2019-01-23T09:02:56.502Z,-5.03
2019-01-23T09:03:56.449Z,-4.85
2019-01-23T09:04:56.400Z,-4.53
2019-01-23T09:05:56.386Z,-4.46
2019-01-23T09:06:56.342Z,-4.28
2019-01-23T09:07:56.427Z,-4.03
2019-01-23T09:08:56.255Z,-3.91
2019-01-23T09:09:56.206Z,-3.86
2019-01-23T09:10:56.159Z,-3.69
2019-01-23T09:11:56.138Z,-3.64
2019-01-23T09:12:56.110Z,-3.62
2019-01-23T09:13:56.008Z,-3.49
2019-01-23T09:14:55.983Z,-3.30
2019-01-23T09:15:55.919Z,-3.21
2019-01-23T09:16:55.876Z,-3.24
2019-01-23T09:17:55.846Z,-3.31
2019-01-23T09:18:55.801Z,-3.27
2019-01-23T09:19:55.747Z,-3.18
2019-01-23T09:20:55.701Z,-3.09
2019-01-23T09:21:55.674Z,-3.07
2019-01-23T09:22:55.621Z,-2.85
2019-01-23T09:23:55.575Z,-2.91
2019-01-23T09:24:55.539Z,-2.66
2019-01-23T09:25:55.493Z,-2.40
2019-01-23T09:26:55.474Z,-1.90
2019-01-23T09:27:55.406Z,-1.48
2019-01-23T09:28:55.383Z,-1.07
2019-01-23T09:29:55.317Z,-1.09
2019-01-23T09:30:55.273Z,-1.30
2019-01-23T09:31:55.246Z,-1.43
2019-01-23T09:32:55.189Z,-1.09
2019-01-23T09:33:55.156Z,-0.86
2019-01-23T09:34:55.113Z,-0.42
2019-01-23T09:35:55.083Z,0.04
2019-01-23T09:36:55.078Z,0.13
2019-01-23T09:37:55.007Z,0.42
2019-01-23T09:38:54.971Z,0.20
2019-01-23T09:39:54.904Z,0.10
2019-01-23T09:40:54.883Z,-0.10
2019-01-23T09:41:54.815Z,-0.22
2019-01-23T09:42:54.791Z,-0.10
2019-01-23T09:43:54.779Z,-0.19
2019-01-23T09:44:54.721Z,-0.39
2019-01-23T09:45:54.726Z,-0.78
2019-01-23T09:46:54.626Z,-0.70
2019-01-23T09:47:54.596Z,-0.40
2019-01-23T09:48:54.568Z,-0.04
2019-01-23T09:49:54.516Z,0.03
2019-01-23T09:50:54.488Z,0.07
2019-01-23T09:51:54.480Z,0.03
2019-01-23T09:52:54.420Z,-0.14
2019-01-23T09:53:54.838Z,-0.23
2019-01-23T09:54:54.422Z,-0.43
2019-01-23T09:55:54.291Z,-0.51
2019-01-23T09:56:54.253Z,-0.54
2019-01-23T09:57:54.224Z,-0.54
2019-01-23T09:58:54.189Z,-0.51
2019-01-23T09:59:54.134Z,-0.49
2019-01-23T10:00:59.655Z,-0.44
2019-01-23T10:01:54.079Z,-0.39
2019-01-23T10:02:54.027Z,-0.26
2019-01-23T10:03:54.139Z,-0.25
2019-01-23T10:04:53.949Z,-0.05
2019-01-23T10:05:53.925Z,0.26
2019-01-23T10:06:53.878Z,0.68
2019-01-23T10:07:53.868Z,1.20
2019-01-23T10:08:53.847Z,1.44
2019-01-23T10:09:53.778Z,1.51
2019-01-23T10:10:53.747Z,1.54
2019-01-23T10:11:53.715Z,1.65
2019-01-23T10:12:53.669Z,1.54
2019-01-23T10:13:53.616Z,1.62
2019-01-23T10:14:53.579Z,1.76
2019-01-23T10:15:53.541Z,1.80
2019-01-23T10:16:53.519Z,1.91
2019-01-23T10:17:53.557Z,1.98
2019-01-23T10:18:56.117Z,2.18
2019-01-23T10:19:53.420Z,2.21
2019-01-23T10:20:53.352Z,2.34
2019-01-23T10:21:53.320Z,2.42
2019-01-23T10:22:53.303Z,2.39
2019-01-23T10:23:53.275Z,2.57
2019-01-23T10:24:53.212Z,2.43
2019-01-23T10:25:53.209Z,2.52
2019-01-23T10:26:53.134Z,2.63
2019-01-23T10:27:53.107Z,2.74
2019-01-23T10:28:53.072Z,2.49
2019-01-23T10:29:53.062Z,2.52
2019-01-23T10:30:53.012Z,2.42
2019-01-23T10:31:52.956Z,2.49
2019-01-23T10:32:52.949Z,2.39
2019-01-23T10:33:52.875Z,2.46
2019-01-23T10:34:52.843Z,2.71
2019-01-23T10:35:52.802Z,2.74
2019-01-23T10:36:52.780Z,2.81
2019-01-23T10:37:52.753Z,2.75
2019-01-23T10:38:52.754Z,2.81
2019-01-23T10:39:52.667Z,2.71
2019-01-23T10:40:52.645Z,2.45
2019-01-23T10:41:52.612Z,2.30
2019-01-23T10:42:52.563Z,2.34
2019-01-23T10:43:52.536Z,2.02
2019-01-23T10:44:52.530Z,2.10
2019-01-23T10:45:52.483Z,2.20
2019-01-23T10:46:52.442Z,2.31
2019-01-23T10:47:56.074Z,2.43
2019-01-23T10:48:52.369Z,2.46
2019-01-23T10:49:52.371Z,2.07
2019-01-23T10:50:52.305Z,1.66
2019-01-23T10:51:52.269Z,1.50
2019-01-23T10:52:52.262Z,1.45
2019-01-23T10:53:52.182Z,1.27
2019-01-23T10:54:52.150Z,0.94
2019-01-23T10:55:52.103Z,0.47
2019-01-23T10:56:52.091Z,0.10
2019-01-23T10:57:52.074Z,-0.33
2019-01-23T10:58:52.004Z,-0.54
2019-01-23T10:59:51.953Z,-0.51
2019-01-23T11:00:51.941Z,-0.54
2019-01-23T11:01:51.885Z,-0.42
2019-01-23T11:02:51.839Z,-0.26
2019-01-23T11:03:51.809Z,-0.05
2019-01-23T11:04:51.766Z,0.04
2019-01-23T11:05:51.732Z,-0.15
2019-01-23T11:06:51.707Z,0.04
2019-01-23T11:07:51.666Z,0.02
2019-01-23T11:08:51.639Z,-0.10
2019-01-23T11:09:51.595Z,-0.15
2019-01-23T11:10:51.551Z,-0.11
2019-01-23T11:11:51.529Z,-0.22
2019-01-23T11:12:51.471Z,-0.28
2019-01-23T11:13:51.450Z,-0.44
2019-01-23T11:14:51.407Z,-0.29
2019-01-23T11:15:51.375Z,-0.42
2019-01-23T11:16:51.330Z,-0.05
2019-01-23T11:17:51.333Z,-0.03
2019-01-23T11:18:51.250Z,-0.08
2019-01-23T11:19:51.225Z,-0.15
2019-01-23T11:20:51.191Z,0.10
2019-01-23T11:21:51.153Z,0.57
2019-01-23T11:22:51.106Z,0.94
2019-01-23T11:23:51.065Z,1.41
2019-01-23T11:24:51.034Z,1.79
2019-01-23T11:25:51.004Z,2.20
2019-01-23T11:26:50.963Z,2.00
2019-01-23T11:27:50.907Z,2.05
2019-01-23T11:28:50.889Z,2.34
2019-01-23T11:29:50.854Z,2.53
2019-01-23T11:30:50.814Z,2.59
2019-01-23T11:31:50.766Z,2.92
2019-01-23T11:32:50.738Z,3.14
2019-01-23T11:33:50.694Z,3.21
2019-01-23T11:34:50.651Z,3.11
2019-01-23T11:35:50.629Z,3.20
2019-01-23T11:36:50.586Z,3.26
2019-01-23T11:37:50.548Z,3.06
2019-01-23T11:38:50.633Z,2.97
2019-01-23T11:39:50.492Z,3.08
2019-01-23T11:40:50.441Z,3.03
2019-01-23T11:41:50.424Z,3.14
2019-01-23T11:42:50.374Z,2.93
2019-01-23T11:43:50.318Z,3.10
2019-01-23T11:44:50.279Z,2.93
2019-01-23T11:45:50.253Z,2.84
2019-01-23T11:46:50.198Z,2.52
2019-01-23T11:47:50.180Z,2.05
2019-01-23T11:48:50.133Z,2.18
2019-01-23T11:49:50.130Z,2.49
2019-01-23T11:50:50.065Z,2.66
2019-01-23T11:51:50.028Z,2.96
2019-01-23T11:52:50.051Z,3.14
2019-01-23T11:53:49.970Z,3.13
2019-01-23T11:54:49.948Z,2.82
2019-01-23T11:55:49.920Z,2.64
2019-01-23T11:56:49.863Z,2.59
2019-01-23T11:57:49.810Z,2.54
2019-01-23T11:58:49.805Z,2.45
2019-01-23T11:59:49.809Z,2.53
2019-01-23T12:00:49.748Z,2.53
2019-01-23T12:01:49.663Z,2.42
2019-01-23T12:02:49.628Z,2.23
2019-01-23T12:03:49.594Z,2.17
2019-01-23T12:04:49.583Z,1.98
2019-01-23T12:05:49.547Z,1.79
2019-01-23T12:06:49.493Z,1.76
2019-01-23T12:07:49.454Z,1.52
2019-01-23T12:08:49.440Z,1.22
2019-01-23T12:09:49.369Z,1.15
2019-01-23T12:10:49.351Z,1.08
2019-01-23T12:11:49.280Z,1.15
2019-01-23T12:12:49.263Z,1.18
2019-01-23T12:13:49.256Z,1.02
2019-01-23T12:14:49.189Z,1.16
2019-01-23T12:15:49.168Z,1.16
2019-01-23T12:16:49.123Z,1.30
2019-01-23T12:17:49.079Z,1.14
2019-01-23T12:18:49.148Z,0.83
2019-01-23T12:19:49.037Z,0.87
2019-01-23T12:20:49.029Z,0.94
2019-01-23T12:21:48.944Z,0.72
2019-01-23T12:22:48.893Z,0.57
2019-01-23T12:23:48.847Z,0.38
2019-01-23T12:24:48.904Z,0.39
2019-01-23T12:25:48.827Z,0.42
2019-01-23T12:26:48.732Z,0.42
2019-01-23T12:27:48.717Z,0.66
2019-01-23T12:28:48.675Z,0.75
2019-01-23T12:29:48.741Z,0.97
2019-01-23T12:30:48.594Z,0.93
2019-01-23T12:31:48.540Z,0.73
2019-01-23T12:32:48.506Z,0.60
2019-01-23T12:33:48.485Z,0.61
2019-01-23T12:34:48.512Z,0.62
2019-01-23T12:35:48.471Z,0.38
2019-01-23T12:36:48.364Z,0.39
2019-01-23T12:37:48.309Z,0.32
2019-01-23T12:38:48.283Z,0.18
2019-01-23T12:39:48.284Z,0.03
2019-01-23T12:40:48.223Z,0.00
2019-01-23T12:41:48.217Z,0.11
2019-01-23T12:42:48.122Z,0.08
2019-01-23T12:43:48.104Z,0.18
2019-01-23T12:44:48.059Z,-0.01
2019-01-23T12:45:48.014Z,-0.11
2019-01-23T12:46:47.985Z,-0.21
2019-01-23T12:47:47.927Z,-0.22
2019-01-23T12:48:47.895Z,-0.16
2019-01-23T12:49:47.883Z,-0.22
2019-01-23T12:50:47.807Z,-0.18
2019-01-23T12:51:47.761Z,-0.14
2019-01-23T12:52:47.742Z,-0.22
2019-01-23T12:53:47.708Z,-0.11
2019-01-23T12:54:47.753Z,-0.03
2019-01-23T12:55:47.635Z,-0.11